Derby, Mississippi
Current Conditions -  °F | °C
As of 2:55 AM on Friday 24 Oct 2014 (Local Time) from KBXA Reporting Station
NA  
Wind Chill: 49°   Ceiling: NA
Heat Index: 49°   Visibility: 10mi
Dew Point: 46°   Wind: 3mph
Humidity: 89%   Direction: 360°N
Pressure: 30.1"   Gusts: NA
Location:  30.8781°N, 89.5858°W
Report Text: KBXA 240755Z AUTO 36003KT 10SM 10/08 A3010 RMK AO2 T00960078
Loading
Personal Weather Stations






























Interactive Weather Map
Tropical Storm Tracking
New forecast layout! Learn more

10-Day Weather Forecast

Advertisements
Track Severe Weather on mobile